sensor_id;sensor_type;location;lat;lon;timestamp;pressure;altitude;pressure_sealevel;temperature;humidity
40954;BME280;26686;50.130;8.710;2022-12-11T00:04:16;99649.28;;;1.01;68.06
40954;BME280;26686;50.130;8.710;2022-12-11T00:09:19;99651.00;;;1.02;67.57
40954;BME280;26686;50.130;8.710;2022-12-11T00:14:21;99656.22;;;0.85;68.53
40954;BME280;26686;50.130;8.710;2022-12-11T00:19:22;99645.56;;;0.70;69.07
40954;BME280;26686;50.130;8.710;2022-12-11T00:24:24;99653.34;;;0.72;69.17
40954;BME280;26686;50.130;8.710;2022-12-11T00:29:25;99660.22;;;0.75;69.37
40954;BME280;26686;50.130;8.710;2022-12-11T00:34:26;99650.97;;;0.67;69.60
40954;BME280;26686;50.130;8.710;2022-12-11T00:39:28;99652.22;;;0.60;70.36
40954;BME280;26686;50.130;8.710;2022-12-11T00:44:29;99648.97;;;0.55;70.37
40954;BME280;26686;50.130;8.710;2022-12-11T00:49:31;99655.00;;;0.57;70.19
40954;BME280;26686;50.130;8.710;2022-12-11T00:54:32;99652.06;;;0.63;70.31
40954;BME280;26686;50.130;8.710;2022-12-11T00:59:34;99659.31;;;0.76;69.99
40954;BME280;26686;50.130;8.710;2022-12-11T01:04:35;99649.28;;;0.66;69.86
40954;BME280;26686;50.130;8.710;2022-12-11T01:09:37;99656.28;;;0.66;70.25
40954;BME280;26686;50.130;8.710;2022-12-11T01:14:57;99659.53;;;0.71;70.17
40954;BME280;26686;50.130;8.710;2022-12-11T01:19:58;99623.66;;;0.37;70.56
40954;BME280;26686;50.130;8.710;2022-12-11T01:25:00;99654.75;;;0.79;70.31
40954;BME280;26686;50.130;8.710;2022-12-11T01:30:04;99650.53;;;0.77;69.69
40954;BME280;26686;50.130;8.710;2022-12-11T01:35:06;99647.59;;;1.00;69.79
40954;BME280;26686;50.130;8.710;2022-12-11T01:40:12;99647.16;;;0.92;68.93
40954;BME280;26686;50.130;8.710;2022-12-11T01:50:21;99634.66;;;0.62;70.54
40954;BME280;26686;50.130;8.710;2022-12-11T01:55:23;99657.47;;;0.60;70.04
40954;BME280;26686;50.130;8.710;2022-12-11T02:00:24;99657.59;;;0.57;70.05
40954;BME280;26686;50.130;8.710;2022-12-11T02:05:26;99648.28;;;0.51;69.92
40954;BME280;26686;50.130;8.710;2022-12-11T02:10:42;99651.44;;;0.58;69.40
40954;BME280;26686;50.130;8.710;2022-12-11T02:15:59;99656.66;;;0.58;69.61
40954;BME280;26686;50.130;8.710;2022-12-11T02:21:12;99640.50;;;0.50;70.07
40954;BME280;26686;50.130;8.710;2022-12-11T02:32:13;99654.63;;;0.65;70.73
40954;BME280;26686;50.130;8.710;2022-12-11T02:37:22;99653.59;;;0.67;70.97
40954;BME280;26686;50.130;8.710;2022-12-11T02:42:28;99668.47;;;0.67;71.04
40954;BME280;26686;50.130;8.710;2022-12-11T02:47:32;99674.47;;;0.69;71.76
40954;BME280;26686;50.130;8.710;2022-12-11T02:52:34;99676.25;;;0.68;72.97
40954;BME280;26686;50.130;8.710;2022-12-11T02:57:47;99669.31;;;0.67;73.18
40954;BME280;26686;50.130;8.710;2022-12-11T03:02:50;99661.69;;;0.63;73.99
40954;BME280;26686;50.130;8.710;2022-12-11T03:07:51;99659.44;;;0.55;74.27
40954;BME280;26686;50.130;8.710;2022-12-11T03:12:54;99656.19;;;0.50;74.59
40954;BME280;26686;50.130;8.710;2022-12-11T03:18:22;99659.81;;;0.47;74.83
40954;BME280;26686;50.130;8.710;2022-12-11T03:28:57;99635.84;;;0.38;75.60
40954;BME280;26686;50.130;8.710;2022-12-11T03:34:03;99656.06;;;0.53;75.21
40954;BME280;26686;50.130;8.710;2022-12-11T03:39:17;99648.50;;;0.47;75.09
40954;BME280;26686;50.130;8.710;2022-12-11T03:44:22;99642.47;;;0.45;75.29
40954;BME280;26686;50.130;8.710;2022-12-11T03:49:30;99648.78;;;0.41;75.52
40954;BME280;26686;50.130;8.710;2022-12-11T03:54:35;99652.31;;;0.40;75.34
40954;BME280;26686;50.130;8.710;2022-12-11T03:59:37;99656.81;;;0.38;75.68
40954;BME280;26686;50.130;8.710;2022-12-11T04:04:40;99651.41;;;0.41;74.62
40954;BME280;26686;50.130;8.710;2022-12-11T04:09:42;99650.97;;;0.50;74.76
40954;BME280;26686;50.130;8.710;2022-12-11T04:14:44;99652.78;;;0.48;73.87
40954;BME280;26686;50.130;8.710;2022-12-11T04:20:04;99654.66;;;0.46;74.68
40954;BME280;26686;50.130;8.710;2022-12-11T04:25:24;99644.47;;;0.40;75.46
40954;BME280;26686;50.130;8.710;2022-12-11T04:30:26;99650.03;;;0.51;74.86
40954;BME280;26686;50.130;8.710;2022-12-11T04:35:34;99649.69;;;0.59;74.40
40954;BME280;26686;50.130;8.710;2022-12-11T04:40:36;99654.66;;;0.46;74.36
40954;BME280;26686;50.130;8.710;2022-12-11T04:45:37;99649.56;;;0.43;75.08
40954;BME280;26686;50.130;8.710;2022-12-11T04:50:39;99643.56;;;0.58;75.56
40954;BME280;26686;50.130;8.710;2022-12-11T04:55:40;99651.44;;;0.58;75.48
40954;BME280;26686;50.130;8.710;2022-12-11T05:00:41;99646.72;;;0.47;75.81
40954;BME280;26686;50.130;8.710;2022-12-11T05:05:47;99647.84;;;0.42;75.52
40954;BME280;26686;50.130;8.710;2022-12-11T05:10:59;99653.81;;;0.45;76.26
40954;BME280;26686;50.130;8.710;2022-12-11T05:16:05;99628.22;;;0.50;75.34
40954;BME280;26686;50.130;8.710;2022-12-11T05:21:12;99625.22;;;0.41;75.33
40954;BME280;26686;50.130;8.710;2022-12-11T05:26:16;99615.19;;;0.31;75.48
40954;BME280;26686;50.130;8.710;2022-12-11T05:31:21;99607.47;;;0.28;75.44
40954;BME280;26686;50.130;8.710;2022-12-11T05:36:29;99623.59;;;0.38;76.09
40954;BME280;26686;50.130;8.710;2022-12-11T05:41:32;99630.31;;;0.44;75.42
40954;BME280;26686;50.130;8.710;2022-12-11T05:46:33;99622.75;;;0.38;75.18
40954;BME280;26686;50.130;8.710;2022-12-11T05:51:36;99624.13;;;0.45;75.45
40954;BME280;26686;50.130;8.710;2022-12-11T05:56:39;99618.97;;;0.43;75.17
40954;BME280;26686;50.130;8.710;2022-12-11T06:01:42;99623.38;;;0.43;75.80
40954;BME280;26686;50.130;8.710;2022-12-11T06:06:43;99613.59;;;0.46;75.82
40954;BME280;26686;50.130;8.710;2022-12-11T06:11:45;99593.66;;;0.44;75.71
40954;BME280;26686;50.130;8.710;2022-12-11T06:16:46;99596.88;;;0.49;75.61
40954;BME280;26686;50.130;8.710;2022-12-11T06:21:47;99598.41;;;0.70;74.32
40954;BME280;26686;50.130;8.710;2022-12-11T06:26:49;99614.75;;;0.58;75.18
40954;BME280;26686;50.130;8.710;2022-12-11T06:31:51;99614.59;;;0.61;75.39
40954;BME280;26686;50.130;8.710;2022-12-11T06:36:52;99608.13;;;0.68;74.96
40954;BME280;26686;50.130;8.710;2022-12-11T06:41:54;99597.97;;;0.62;75.05
40954;BME280;26686;50.130;8.710;2022-12-11T06:46:55;99594.56;;;0.78;74.24
40954;BME280;26686;50.130;8.710;2022-12-11T06:51:57;99595.03;;;0.68;73.62
40954;BME280;26686;50.130;8.710;2022-12-11T06:56:58;99596.97;;;0.65;74.54
40954;BME280;26686;50.130;8.710;2022-12-11T07:02:00;99592.06;;;0.59;74.72
40954;BME280;26686;50.130;8.710;2022-12-11T07:07:01;99603.38;;;0.59;74.96
40954;BME280;26686;50.130;8.710;2022-12-11T07:12:03;99608.38;;;0.64;75.00
40954;BME280;26686;50.130;8.710;2022-12-11T07:17:05;99608.44;;;0.62;74.69
40954;BME280;26686;50.130;8.710;2022-12-11T07:22:06;99611.06;;;0.62;74.99
40954;BME280;26686;50.130;8.710;2022-12-11T07:27:08;99614.13;;;0.70;75.94
40954;BME280;26686;50.130;8.710;2022-12-11T07:32:09;99614.63;;;0.79;75.75
40954;BME280;26686;50.130;8.710;2022-12-11T07:37:11;99612.59;;;0.84;75.79
40954;BME280;26686;50.130;8.710;2022-12-11T07:42:12;99605.06;;;0.78;75.11
40954;BME280;26686;50.130;8.710;2022-12-11T07:47:13;99617.41;;;0.76;75.32
40954;BME280;26686;50.130;8.710;2022-12-11T07:52:15;99632.97;;;0.79;75.34
40954;BME280;26686;50.130;8.710;2022-12-11T07:57:16;99630.03;;;0.85;75.99
40954;BME280;26686;50.130;8.710;2022-12-11T08:02:18;99632.25;;;0.93;75.78
40954;BME280;26686;50.130;8.710;2022-12-11T08:07:19;99642.06;;;0.89;75.73
40954;BME280;26686;50.130;8.710;2022-12-11T08:12:21;99636.66;;;0.92;75.79
40954;BME280;26686;50.130;8.710;2022-12-11T08:17:22;99638.97;;;0.98;76.04
40954;BME280;26686;50.130;8.710;2022-12-11T08:22:31;99594.19;;;0.85;75.76
40954;BME280;26686;50.130;8.710;2022-12-11T08:27:32;99592.97;;;0.75;76.02
40954;BME280;26686;50.130;8.710;2022-12-11T08:32:34;99635.44;;;0.99;75.89
40954;BME280;26686;50.130;8.710;2022-12-11T08:37:35;99622.56;;;0.95;76.17
40954;BME280;26686;50.130;8.710;2022-12-11T08:42:37;99620.63;;;0.98;75.98
40954;BME280;26686;50.130;8.710;2022-12-11T08:47:38;99618.00;;;0.98;75.97
40954;BME280;26686;50.130;8.710;2022-12-11T08:52:40;99623.25;;;0.98;75.98
40954;BME280;26686;50.130;8.710;2022-12-11T08:57:41;99627.56;;;0.99;75.97
40954;BME280;26686;50.130;8.710;2022-12-11T09:02:43;99628.66;;;0.95;75.76
40954;BME280;26686;50.130;8.710;2022-12-11T09:07:44;99635.75;;;0.93;75.98
40954;BME280;26686;50.130;8.710;2022-12-11T09:12:46;99625.25;;;0.93;75.95
40954;BME280;26686;50.130;8.710;2022-12-11T09:17:47;99625.88;;;0.98;75.90
40954;BME280;26686;50.130;8.710;2022-12-11T09:22:49;99624.78;;;1.02;76.36
40954;BME280;26686;50.130;8.710;2022-12-11T09:27:50;99632.66;;;1.02;76.37
40954;BME280;26686;50.130;8.710;2022-12-11T09:32:55;99635.56;;;1.14;76.44
40954;BME280;26686;50.130;8.710;2022-12-11T09:37:57;99633.91;;;1.29;75.65
40954;BME280;26686;50.130;8.710;2022-12-11T09:43:05;99627.75;;;1.30;74.92
40954;BME280;26686;50.130;8.710;2022-12-11T09:48:10;99627.69;;;1.14;74.79
40954;BME280;26686;50.130;8.710;2022-12-11T09:53:33;99606.28;;;1.05;75.15
40954;BME280;26686;50.130;8.710;2022-12-11T09:59:01;99620.31;;;1.04;75.82
40954;BME280;26686;50.130;8.710;2022-12-11T10:09:40;99536.34;;;0.73;75.34
40954;BME280;26686;50.130;8.710;2022-12-11T10:15:12;99611.09;;;1.31;75.32
40954;BME280;26686;50.130;8.710;2022-12-11T10:20:30;99613.91;;;1.44;75.08
40954;BME280;26686;50.130;8.710;2022-12-11T10:26:00;99583.94;;;1.32;74.78
40954;BME280;26686;50.130;8.710;2022-12-11T10:36:21;99602.78;;;1.22;74.90
40954;BME280;26686;50.130;8.710;2022-12-11T10:41:32;99610.06;;;1.33;74.96
40954;BME280;26686;50.130;8.710;2022-12-11T10:46:36;99604.66;;;1.36;75.41
40954;BME280;26686;50.130;8.710;2022-12-11T10:51:39;99599.41;;;1.36;75.15
40954;BME280;26686;50.130;8.710;2022-12-11T10:56:40;99594.00;;;1.39;74.61
40954;BME280;26686;50.130;8.710;2022-12-11T11:01:46;99580.66;;;1.44;74.68
40954;BME280;26686;50.130;8.710;2022-12-11T11:06:47;99568.31;;;1.46;74.49
40954;BME280;26686;50.130;8.710;2022-12-11T11:11:50;99557.91;;;1.45;73.92
40954;BME280;26686;50.130;8.710;2022-12-11T11:16:55;99568.50;;;1.59;74.17
40954;BME280;26686;50.130;8.710;2022-12-11T11:22:00;99560.03;;;1.54;73.26
40954;BME280;26686;50.130;8.710;2022-12-11T11:27:18;99558.16;;;1.56;73.54
40954;BME280;26686;50.130;8.710;2022-12-11T11:32:33;99550.13;;;1.59;72.50
40954;BME280;26686;50.130;8.710;2022-12-11T11:37:38;99548.88;;;1.66;72.34
40954;BME280;26686;50.130;8.710;2022-12-11T11:48:11;99542.63;;;1.85;71.50
40954;BME280;26686;50.130;8.710;2022-12-11T11:53:32;99529.91;;;1.77;71.11
40954;BME280;26686;50.130;8.710;2022-12-11T11:58:42;99536.75;;;1.80;71.68
40954;BME280;26686;50.130;8.710;2022-12-11T12:03:46;99535.50;;;1.87;71.79
40954;BME280;26686;50.130;8.710;2022-12-11T12:08:57;99532.97;;;2.01;70.34
40954;BME280;26686;50.130;8.710;2022-12-11T12:14:07;99523.81;;;1.92;71.11
40954;BME280;26686;50.130;8.710;2022-12-11T12:19:56;99530.16;;;1.72;70.34
40954;BME280;26686;50.130;8.710;2022-12-11T12:25:09;99511.13;;;1.53;70.75
40954;BME280;26686;50.130;8.710;2022-12-11T12:30:17;99515.28;;;1.57;71.65
40954;BME280;26686;50.130;8.710;2022-12-11T12:40:39;99529.81;;;1.47;70.35
40954;BME280;26686;50.130;8.710;2022-12-11T12:51:05;99529.47;;;1.53;70.11
40954;BME280;26686;50.130;8.710;2022-12-11T12:56:07;99518.72;;;1.57;70.20
40954;BME280;26686;50.130;8.710;2022-12-11T13:06:13;99521.09;;;1.62;70.69
40954;BME280;26686;50.130;8.710;2022-12-11T13:11:17;99486.41;;;1.57;70.42
40954;BME280;26686;50.130;8.710;2022-12-11T13:16:24;99519.50;;;1.91;68.64
40954;BME280;26686;50.130;8.710;2022-12-11T13:21:30;99520.75;;;1.84;68.52
40954;BME280;26686;50.130;8.710;2022-12-11T13:26:32;99513.66;;;1.70;68.67
40954;BME280;26686;50.130;8.710;2022-12-11T13:31:36;99513.50;;;1.73;68.30
40954;BME280;26686;50.130;8.710;2022-12-11T13:36:39;99511.63;;;1.91;69.49
40954;BME280;26686;50.130;8.710;2022-12-11T13:41:44;99518.03;;;1.86;68.18
40954;BME280;26686;50.130;8.710;2022-12-11T13:46:48;99522.78;;;1.95;67.63
40954;BME280;26686;50.130;8.710;2022-12-11T13:51:53;99520.59;;;1.87;67.82
40954;BME280;26686;50.130;8.710;2022-12-11T14:02:14;99527.00;;;1.82;68.52
40954;BME280;26686;50.130;8.710;2022-12-11T14:07:27;99521.44;;;1.88;68.52
40954;BME280;26686;50.130;8.710;2022-12-11T14:12:30;99526.31;;;2.10;67.70
40954;BME280;26686;50.130;8.710;2022-12-11T14:17:33;99504.06;;;2.01;67.12
40954;BME280;26686;50.130;8.710;2022-12-11T14:22:35;99523.94;;;2.05;67.79
40954;BME280;26686;50.130;8.710;2022-12-11T14:27:47;99510.81;;;2.05;67.37
40954;BME280;26686;50.130;8.710;2022-12-11T14:32:50;99521.03;;;2.26;66.97
40954;BME280;26686;50.130;8.710;2022-12-11T14:37:53;99514.44;;;2.19;65.18
40954;BME280;26686;50.130;8.710;2022-12-11T14:42:57;99532.72;;;2.20;65.96
40954;BME280;26686;50.130;8.710;2022-12-11T14:48:07;99533.34;;;2.09;66.28
40954;BME280;26686;50.130;8.710;2022-12-11T14:53:14;99534.38;;;2.07;66.80
40954;BME280;26686;50.130;8.710;2022-12-11T14:58:22;99537.84;;;2.07;67.30
40954;BME280;26686;50.130;8.710;2022-12-11T15:03:33;99535.97;;;2.09;66.86
40954;BME280;26686;50.130;8.710;2022-12-11T15:08:34;99540.22;;;1.96;67.51
40954;BME280;26686;50.130;8.710;2022-12-11T15:13:53;99551.66;;;1.95;68.01
40954;BME280;26686;50.130;8.710;2022-12-11T15:18:56;99547.19;;;1.97;68.93
40954;BME280;26686;50.130;8.710;2022-12-11T15:24:03;99543.94;;;1.92;69.82
40954;BME280;26686;50.130;8.710;2022-12-11T15:34:57;99560.75;;;1.89;68.63
40954;BME280;26686;50.130;8.710;2022-12-11T15:40:02;99555.31;;;1.92;69.90
40954;BME280;26686;50.130;8.710;2022-12-11T15:45:07;99555.81;;;1.99;69.41
40954;BME280;26686;50.130;8.710;2022-12-11T15:50:21;99559.53;;;2.11;69.45
40954;BME280;26686;50.130;8.710;2022-12-11T15:55:26;99565.59;;;2.11;69.07
40954;BME280;26686;50.130;8.710;2022-12-11T16:00:34;99567.31;;;2.12;68.72
40954;BME280;26686;50.130;8.710;2022-12-11T16:05:35;99561.13;;;1.98;68.98
40954;BME280;26686;50.130;8.710;2022-12-11T16:10:37;99566.31;;;1.99;69.41
40954;BME280;26686;50.130;8.710;2022-12-11T16:15:41;99572.34;;;2.01;69.28
40954;BME280;26686;50.130;8.710;2022-12-11T16:20:44;99571.91;;;1.93;69.05
40954;BME280;26686;50.130;8.710;2022-12-11T16:25:46;99567.00;;;2.03;68.97
40954;BME280;26686;50.130;8.710;2022-12-11T16:30:48;99563.31;;;2.05;68.32
40954;BME280;26686;50.130;8.710;2022-12-11T16:35:50;99570.38;;;2.05;67.88
40954;BME280;26686;50.130;8.710;2022-12-11T16:41:00;99570.78;;;2.13;68.71
40954;BME280;26686;50.130;8.710;2022-12-11T16:46:02;99558.16;;;2.04;68.94
40954;BME280;26686;50.130;8.710;2022-12-11T16:51:04;99564.38;;;2.03;69.12
40954;BME280;26686;50.130;8.710;2022-12-11T16:56:07;99554.97;;;1.99;69.42
40954;BME280;26686;50.130;8.710;2022-12-11T17:01:10;99560.69;;;2.05;69.16
40954;BME280;26686;50.130;8.710;2022-12-11T17:06:15;99551.72;;;2.09;68.86
40954;BME280;26686;50.130;8.710;2022-12-11T17:11:20;99554.94;;;2.15;68.45
40954;BME280;26686;50.130;8.710;2022-12-11T17:16:23;99543.09;;;2.07;68.16
40954;BME280;26686;50.130;8.710;2022-12-11T17:21:26;99537.00;;;2.07;69.53
40954;BME280;26686;50.130;8.710;2022-12-11T17:26:27;99551.03;;;2.22;69.95
40954;BME280;26686;50.130;8.710;2022-12-11T17:31:29;99557.69;;;2.43;69.00
40954;BME280;26686;50.130;8.710;2022-12-11T17:36:30;99533.06;;;2.30;68.92
40954;BME280;26686;50.130;8.710;2022-12-11T17:41:32;99548.09;;;2.42;68.55
40954;BME280;26686;50.130;8.710;2022-12-11T17:46:33;99534.84;;;2.60;68.23
40954;BME280;26686;50.130;8.710;2022-12-11T17:51:35;99538.56;;;2.56;68.34
40954;BME280;26686;50.130;8.710;2022-12-11T17:56:36;99542.75;;;2.44;68.74
40954;BME280;26686;50.130;8.710;2022-12-11T18:01:38;99544.66;;;2.26;68.84
40954;BME280;26686;50.130;8.710;2022-12-11T18:06:39;99541.69;;;2.32;69.71
40954;BME280;26686;50.130;8.710;2022-12-11T18:11:41;99548.91;;;2.28;69.52
40954;BME280;26686;50.130;8.710;2022-12-11T18:16:42;99544.94;;;2.21;70.22
40954;BME280;26686;50.130;8.710;2022-12-11T18:21:44;99542.22;;;2.23;70.37
40954;BME280;26686;50.130;8.710;2022-12-11T18:26:46;99539.16;;;2.30;70.17
40954;BME280;26686;50.130;8.710;2022-12-11T18:31:48;99536.78;;;2.26;70.12
40954;BME280;26686;50.130;8.710;2022-12-11T18:36:50;99529.84;;;2.25;70.72
40954;BME280;26686;50.130;8.710;2022-12-11T18:41:52;99521.84;;;2.12;71.46
40954;BME280;26686;50.130;8.710;2022-12-11T18:47:13;99537.81;;;2.54;70.00
40954;BME280;26686;50.130;8.710;2022-12-11T18:52:14;99547.88;;;2.61;69.13
40954;BME280;26686;50.130;8.710;2022-12-11T18:57:16;99543.50;;;2.46;69.48
40954;BME280;26686;50.130;8.710;2022-12-11T19:02:18;99549.00;;;2.57;69.29
40954;BME280;26686;50.130;8.710;2022-12-11T19:07:20;99554.88;;;2.46;70.17
40954;BME280;26686;50.130;8.710;2022-12-11T19:12:21;99540.88;;;2.46;69.61
40954;BME280;26686;50.130;8.710;2022-12-11T19:17:23;99547.13;;;2.29;70.29
40954;BME280;26686;50.130;8.710;2022-12-11T19:22:24;99536.50;;;2.46;69.83
40954;BME280;26686;50.130;8.710;2022-12-11T19:27:26;99534.63;;;2.48;69.76
40954;BME280;26686;50.130;8.710;2022-12-11T19:32:27;99523.41;;;2.30;70.32
40954;BME280;26686;50.130;8.710;2022-12-11T19:37:36;99544.72;;;2.40;70.21
40954;BME280;26686;50.130;8.710;2022-12-11T19:42:38;99538.69;;;2.38;69.67
40954;BME280;26686;50.130;8.710;2022-12-11T19:47:39;99533.41;;;2.24;69.86
40954;BME280;26686;50.130;8.710;2022-12-11T19:52:41;99541.22;;;2.09;70.58
40954;BME280;26686;50.130;8.710;2022-12-11T19:57:46;99544.44;;;2.15;70.42
40954;BME280;26686;50.130;8.710;2022-12-11T20:02:48;99539.53;;;2.08;69.69
40954;BME280;26686;50.130;8.710;2022-12-11T20:07:50;99537.41;;;2.15;68.32
40954;BME280;26686;50.130;8.710;2022-12-11T20:12:52;99511.88;;;1.87;68.48
40954;BME280;26686;50.130;8.710;2022-12-11T20:17:58;99541.22;;;2.09;68.55
40954;BME280;26686;50.130;8.710;2022-12-11T20:23:00;99540.31;;;2.10;68.71
40954;BME280;26686;50.130;8.710;2022-12-11T20:28:02;99537.25;;;2.02;70.24
40954;BME280;26686;50.130;8.710;2022-12-11T20:33:03;99532.16;;;2.15;70.15
40954;BME280;26686;50.130;8.710;2022-12-11T20:38:04;99545.66;;;2.09;70.20
40954;BME280;26686;50.130;8.710;2022-12-11T20:43:06;99545.66;;;2.09;70.20
40954;BME280;26686;50.130;8.710;2022-12-11T20:48:07;99539.69;;;2.05;69.89
40954;BME280;26686;50.130;8.710;2022-12-11T20:53:10;99535.41;;;2.04;70.33
40954;BME280;26686;50.130;8.710;2022-12-11T20:58:12;99532.59;;;2.07;69.91
40954;BME280;26686;50.130;8.710;2022-12-11T21:03:13;99529.19;;;2.05;70.01
40954;BME280;26686;50.130;8.710;2022-12-11T21:08:15;99532.25;;;1.98;69.95
40954;BME280;26686;50.130;8.710;2022-12-11T21:13:16;99532.59;;;2.07;69.58
40954;BME280;26686;50.130;8.710;2022-12-11T21:18:18;99529.97;;;2.07;69.14
40954;BME280;26686;50.130;8.710;2022-12-11T21:23:19;99528.66;;;2.15;68.77
40954;BME280;26686;50.130;8.710;2022-12-11T21:28:21;99530.06;;;2.06;68.71
40954;BME280;26686;50.130;8.710;2022-12-11T21:33:22;99531.00;;;2.05;68.97
40954;BME280;26686;50.130;8.710;2022-12-11T21:38:24;99528.28;;;2.06;69.19
40954;BME280;26686;50.130;8.710;2022-12-11T21:43:26;99533.72;;;2.03;68.75
40954;BME280;26686;50.130;8.710;2022-12-11T21:48:27;99529.31;;;1.88;69.08
40954;BME280;26686;50.130;8.710;2022-12-11T21:53:29;99535.50;;;1.87;69.74
40954;BME280;26686;50.130;8.710;2022-12-11T21:58:30;99541.59;;;1.71;70.18
40954;BME280;26686;50.130;8.710;2022-12-11T22:03:32;99545.91;;;1.72;70.01
40954;BME280;26686;50.130;8.710;2022-12-11T22:08:33;99537.00;;;1.59;70.42
40954;BME280;26686;50.130;8.710;2022-12-11T22:13:35;99533.81;;;1.54;71.38
40954;BME280;26686;50.130;8.710;2022-12-11T22:18:37;99518.97;;;1.53;70.72
40954;BME280;26686;50.130;8.710;2022-12-11T22:23:39;99519.25;;;1.48;71.06
40954;BME280;26686;50.130;8.710;2022-12-11T22:28:41;99540.06;;;1.67;70.80
40954;BME280;26686;50.130;8.710;2022-12-11T22:33:43;99541.25;;;1.62;71.36
40954;BME280;26686;50.130;8.710;2022-12-11T22:38:45;99549.22;;;1.60;71.92
40954;BME280;26686;50.130;8.710;2022-12-11T22:43:47;99551.34;;;1.53;71.63
40954;BME280;26686;50.130;8.710;2022-12-11T22:48:49;99529.72;;;1.48;72.13
40954;BME280;26686;50.130;8.710;2022-12-11T22:53:51;99543.97;;;1.60;72.03
40954;BME280;26686;50.130;8.710;2022-12-11T22:58:52;99553.78;;;1.72;71.88
40954;BME280;26686;50.130;8.710;2022-12-11T23:03:54;99551.41;;;1.84;71.76
40954;BME280;26686;50.130;8.710;2022-12-11T23:08:57;99545.00;;;1.89;71.50
40954;BME280;26686;50.130;8.710;2022-12-11T23:13:59;99553.53;;;1.93;71.40
40954;BME280;26686;50.130;8.710;2022-12-11T23:19:01;99550.91;;;1.77;71.63
40954;BME280;26686;50.130;8.710;2022-12-11T23:24:04;99558.78;;;1.93;71.65
40954;BME280;26686;50.130;8.710;2022-12-11T23:29:06;99558.06;;;2.05;71.07
40954;BME280;26686;50.130;8.710;2022-12-11T23:34:08;99552.81;;;2.05;71.34
40954;BME280;26686;50.130;8.710;2022-12-11T23:39:09;99556.47;;;2.19;71.31
40954;BME280;26686;50.130;8.710;2022-12-11T23:44:11;99539.16;;;2.15;70.50
40954;BME280;26686;50.130;8.710;2022-12-11T23:49:12;99562.63;;;2.18;70.62
40954;BME280;26686;50.130;8.710;2022-12-11T23:54:14;99561.03;;;2.15;71.16
40954;BME280;26686;50.130;8.710;2022-12-11T23:59:15;99561.88;;;2.00;71.81
